Detall de PIREP

Printer-friendly versionPDF version

[2013/06/18 14:06:00]
Flight IATA:CT1004
Pilot Number:011
Company ICAO:CAT
Aircraft Type:B738/F
PAX:160
Departing Airport: LIEA
Destination Airport: LFMP
Alternate Airport:LFBO
Online: VATSIM
Route:GINOX UM732 NISEK UT175 DIVKO UM731 FJR/N0330F190 G39 BRUSC A27 SIJAN
Flight Level:F360
No Slew and time accel
No pause
Crash detect
Detect pilot in Cockpit between each 30 and 45 minutes
14:06 Zero fuel Weight: 136990 Lbs, Fuel Weight: 14843 Lbs
14:06 VATSIM:LIEA 181320Z 29008KT 240V320 CAVOK 35/10 Q1011
14:06 VATSIM:LFMP 181330Z 11010KT 080V140 9999 FEW026 SCT150 BKN260 25/15 Q1011 NOSIG
14:07 Parking Brakes off
14:15 Take-off
14:15 Take off Weight: 149647 Lbs
14:15 Wind: 098º @ 011 Knots Heading: 201º
14:15 POS N40º 37´ 48´´ E008º 17´ 22´´
14:15 Gear Up: 165 Knots
14:15 Flaps:5 at 165 Knots
14:16 Flaps:4 at 163 Knots
14:16 Flaps:3 at 165 Knots
14:16 Flaps:2 at 168Knots
14:17 Flaps:1 at 178 Knots
14:17 Flaps:0 at 180 Knots
14:30 Wind:099º@031 Knots Heading: 315º Ground Speed: 435 Knots Altitude 31807 ft
14:33 TOC
14:33 Fuel Weight: 9153 Lb
14:45 Wind:027º@027 Knots Heading: 317º Ground Speed: 459 Knots Altitude 35977 ft
14:50 TOD
14:50 Fuel Weight: 7668 Lb
15:00 Wind:129º@028 Knots Heading: 281º Ground Speed: 421 Knots Altitude 19169 ft
15:10 Flaps:1 at 229 Knots
15:10 Flaps:2 at 227 Knots
15:10 Flaps:3 at 220 Knots
15:11 Flaps:4 at 205 Knots
15:11 Flaps:5 at 193 Knots
15:12 Flaps:6 at 174 Knots
15:12 Gear Down: 174 Knots
15:15 Wind:096º@010 Knots Heading: 168º Ground Speed: 147 Knots Altitude 2621 ft
15:15 Flaps:7 at 143 Knots
15:16 Flaps:8 at 139 Knots
15:21 TouchDown:Rate -312 ft/min Speed: 118 Knots
15:21 VATSIM:LFMP 181500Z 10009KT 060V120 9999 FEW026 SCT150 BKN260 24/17 Q1011 NOSIG
15:21 Land
15:21 Wind:102º@009 Knots
15:21 Heading: 147º
15:21 Flight Duration: 01:06
15:21 Landing Weight: 142454 Lbs
15:21 POS N42º 44´ 32´´ E002º 52´ 18´´
15:22 Parking brakes on
15:22 Block to Block Duration: 01:15
15:22 Final Fuel: 5326 Lbls
15:22 Spent Fuel: 9517 Lbls
15:22 Flight Length: 405 NM
15:22 TOD Land Length: 164 NM

Exportar CSV

Powered by Drupal - Modified by Danger4k